sensor_id;sensor_type;location;lat;lon;timestamp;P1;durP1;ratioP1;P2;durP2;ratioP2
16099;SDS011;8154;50.830;12.082;2022-07-06T00:01:54;2.45;;;1.20;;
16099;SDS011;8154;50.830;12.082;2022-07-06T00:04:38;1.73;;;1.20;;
16099;SDS011;8154;50.830;12.082;2022-07-06T00:07:23;2.10;;;1.30;;
16099;SDS011;8154;50.830;12.082;2022-07-06T00:10:08;1.85;;;1.40;;
16099;SDS011;8154;50.830;12.082;2022-07-06T00:12:52;2.55;;;1.48;;
16099;SDS011;8154;50.830;12.082;2022-07-06T00:15:36;1.30;;;1.20;;
16099;SDS011;8154;50.830;12.082;2022-07-06T00:18:20;3.25;;;1.20;;
16099;SDS011;8154;50.830;12.082;2022-07-06T00:21:04;1.80;;;1.30;;
16099;SDS011;8154;50.830;12.082;2022-07-06T00:23:49;1.40;;;1.30;;
16099;SDS011;8154;50.830;12.082;2022-07-06T00:26:35;1.85;;;1.20;;
16099;SDS011;8154;50.830;12.082;2022-07-06T00:29:19;1.30;;;1.20;;
16099;SDS011;8154;50.830;12.082;2022-07-06T00:32:03;1.90;;;1.30;;
16099;SDS011;8154;50.830;12.082;2022-07-06T00:34:48;1.83;;;1.25;;
16099;SDS011;8154;50.830;12.082;2022-07-06T00:37:32;2.67;;;1.50;;
16099;SDS011;8154;50.830;12.082;2022-07-06T00:40:16;1.38;;;1.13;;
16099;SDS011;8154;50.830;12.082;2022-07-06T00:43:01;1.77;;;1.40;;
16099;SDS011;8154;50.830;12.082;2022-07-06T00:45:45;1.98;;;1.38;;
16099;SDS011;8154;50.830;12.082;2022-07-06T00:48:30;1.63;;;1.30;;
16099;SDS011;8154;50.830;12.082;2022-07-06T00:51:14;2.72;;;1.38;;
16099;SDS011;8154;50.830;12.082;2022-07-06T00:53:59;2.03;;;1.33;;
16099;SDS011;8154;50.830;12.082;2022-07-06T00:56:46;2.08;;;1.30;;
16099;SDS011;8154;50.830;12.082;2022-07-06T00:59:30;3.03;;;1.40;;
16099;SDS011;8154;50.830;12.082;2022-07-06T01:02:14;1.50;;;1.33;;
16099;SDS011;8154;50.830;12.082;2022-07-06T01:04:58;1.55;;;1.40;;
16099;SDS011;8154;50.830;12.082;2022-07-06T01:07:45;1.60;;;1.40;;
16099;SDS011;8154;50.830;12.082;2022-07-06T01:10:30;2.67;;;1.48;;
16099;SDS011;8154;50.830;12.082;2022-07-06T01:13:14;1.55;;;1.38;;
16099;SDS011;8154;50.830;12.082;2022-07-06T01:15:58;2.17;;;1.60;;
16099;SDS011;8154;50.830;12.082;2022-07-06T01:18:43;2.17;;;1.50;;
16099;SDS011;8154;50.830;12.082;2022-07-06T01:21:27;1.77;;;1.40;;
16099;SDS011;8154;50.830;12.082;2022-07-06T01:24:11;2.90;;;1.67;;
16099;SDS011;8154;50.830;12.082;2022-07-06T01:26:55;1.77;;;1.40;;
16099;SDS011;8154;50.830;12.082;2022-07-06T01:29:40;1.90;;;1.42;;
16099;SDS011;8154;50.830;12.082;2022-07-06T01:32:24;1.77;;;1.50;;
16099;SDS011;8154;50.830;12.082;2022-07-06T01:35:10;2.60;;;1.40;;
16099;SDS011;8154;50.830;12.082;2022-07-06T01:37:55;1.50;;;1.40;;
16099;SDS011;8154;50.830;12.082;2022-07-06T01:40:40;2.28;;;1.33;;
16099;SDS011;8154;50.830;12.082;2022-07-06T01:43:24;2.25;;;1.40;;
16099;SDS011;8154;50.830;12.082;2022-07-06T01:46:08;2.33;;;1.50;;
16099;SDS011;8154;50.830;12.082;2022-07-06T01:48:53;1.60;;;1.40;;
16099;SDS011;8154;50.830;12.082;2022-07-06T01:51:37;1.52;;;1.30;;
16099;SDS011;8154;50.830;12.082;2022-07-06T01:54:21;1.48;;;1.30;;
16099;SDS011;8154;50.830;12.082;2022-07-06T01:57:05;1.65;;;1.30;;
16099;SDS011;8154;50.830;12.082;2022-07-06T01:59:49;3.08;;;1.40;;
16099;SDS011;8154;50.830;12.082;2022-07-06T02:02:34;1.92;;;1.40;;
16099;SDS011;8154;50.830;12.082;2022-07-06T02:05:18;2.10;;;1.33;;
16099;SDS011;8154;50.830;12.082;2022-07-06T02:08:02;2.13;;;1.40;;
16099;SDS011;8154;50.830;12.082;2022-07-06T02:10:46;2.33;;;1.27;;
16099;SDS011;8154;50.830;12.082;2022-07-06T02:13:30;2.42;;;1.50;;
16099;SDS011;8154;50.830;12.082;2022-07-06T02:16:15;1.98;;;1.50;;
16099;SDS011;8154;50.830;12.082;2022-07-06T02:18:59;2.72;;;1.30;;
16099;SDS011;8154;50.830;12.082;2022-07-06T02:21:43;3.40;;;1.45;;
16099;SDS011;8154;50.830;12.082;2022-07-06T02:24:27;1.73;;;1.30;;
16099;SDS011;8154;50.830;12.082;2022-07-06T02:27:11;1.63;;;1.40;;
16099;SDS011;8154;50.830;12.082;2022-07-06T02:29:56;1.42;;;1.33;;
16099;SDS011;8154;50.830;12.082;2022-07-06T02:32:40;2.17;;;1.30;;
16099;SDS011;8154;50.830;12.082;2022-07-06T02:35:25;1.48;;;1.38;;
16099;SDS011;8154;50.830;12.082;2022-07-06T02:38:09;1.40;;;1.20;;
16099;SDS011;8154;50.830;12.082;2022-07-06T02:40:54;1.65;;;1.30;;
16099;SDS011;8154;50.830;12.082;2022-07-06T02:43:38;1.65;;;1.20;;
16099;SDS011;8154;50.830;12.082;2022-07-06T02:46:23;2.15;;;1.38;;
16099;SDS011;8154;50.830;12.082;2022-07-06T02:49:07;1.30;;;1.20;;
16099;SDS011;8154;50.830;12.082;2022-07-06T02:51:52;1.50;;;1.40;;
16099;SDS011;8154;50.830;12.082;2022-07-06T02:54:36;1.40;;;1.20;;
16099;SDS011;8154;50.830;12.082;2022-07-06T02:57:20;1.30;;;1.20;;
16099;SDS011;8154;50.830;12.082;2022-07-06T03:00:04;1.67;;;1.20;;
16099;SDS011;8154;50.830;12.082;2022-07-06T03:02:50;2.17;;;1.30;;
16099;SDS011;8154;50.830;12.082;2022-07-06T03:05:34;1.85;;;1.20;;
16099;SDS011;8154;50.830;12.082;2022-07-06T03:08:18;1.50;;;1.20;;
16099;SDS011;8154;50.830;12.082;2022-07-06T03:11:02;1.55;;;1.20;;
16099;SDS011;8154;50.830;12.082;2022-07-06T03:13:47;1.58;;;1.10;;
16099;SDS011;8154;50.830;12.082;2022-07-06T03:16:31;1.17;;;1.10;;
16099;SDS011;8154;50.830;12.082;2022-07-06T03:19:16;1.30;;;1.20;;
16099;SDS011;8154;50.830;12.082;2022-07-06T03:22:00;1.65;;;1.30;;
16099;SDS011;8154;50.830;12.082;2022-07-06T03:24:45;1.30;;;1.20;;
16099;SDS011;8154;50.830;12.082;2022-07-06T03:27:29;2.58;;;1.20;;
16099;SDS011;8154;50.830;12.082;2022-07-06T03:30:13;1.30;;;1.20;;
16099;SDS011;8154;50.830;12.082;2022-07-06T03:32:57;1.20;;;1.10;;
16099;SDS011;8154;50.830;12.082;2022-07-06T03:35:41;1.73;;;1.20;;
16099;SDS011;8154;50.830;12.082;2022-07-06T03:38:26;1.35;;;1.00;;
16099;SDS011;8154;50.830;12.082;2022-07-06T03:41:10;1.20;;;1.10;;
16099;SDS011;8154;50.830;12.082;2022-07-06T03:43:54;1.38;;;1.20;;
16099;SDS011;8154;50.830;12.082;2022-07-06T03:46:39;1.20;;;1.10;;
16099;SDS011;8154;50.830;12.082;2022-07-06T03:49:23;1.45;;;1.30;;
16099;SDS011;8154;50.830;12.082;2022-07-06T03:52:10;1.63;;;1.30;;
16099;SDS011;8154;50.830;12.082;2022-07-06T03:54:55;2.03;;;1.35;;
16099;SDS011;8154;50.830;12.082;2022-07-06T03:57:39;1.40;;;1.20;;
16099;SDS011;8154;50.830;12.082;2022-07-06T04:00:24;1.23;;;1.13;;
16099;SDS011;8154;50.830;12.082;2022-07-06T04:03:08;1.23;;;1.13;;
16099;SDS011;8154;50.830;12.082;2022-07-06T04:05:53;1.63;;;1.10;;
16099;SDS011;8154;50.830;12.082;2022-07-06T04:08:37;1.20;;;1.10;;
16099;SDS011;8154;50.830;12.082;2022-07-06T04:11:21;1.30;;;1.20;;
16099;SDS011;8154;50.830;12.082;2022-07-06T04:14:05;1.02;;;1.00;;
16099;SDS011;8154;50.830;12.082;2022-07-06T04:16:50;1.20;;;1.10;;
16099;SDS011;8154;50.830;12.082;2022-07-06T04:19:34;1.10;;;1.00;;
16099;SDS011;8154;50.830;12.082;2022-07-06T04:22:18;1.05;;;1.00;;
16099;SDS011;8154;50.830;12.082;2022-07-06T04:25:02;1.20;;;1.10;;
16099;SDS011;8154;50.830;12.082;2022-07-06T04:27:47;1.30;;;1.20;;
16099;SDS011;8154;50.830;12.082;2022-07-06T04:30:31;2.05;;;1.20;;
16099;SDS011;8154;50.830;12.082;2022-07-06T04:33:16;2.85;;;1.20;;
16099;SDS011;8154;50.830;12.082;2022-07-06T04:36:00;1.23;;;1.13;;
16099;SDS011;8154;50.830;12.082;2022-07-06T04:38:44;1.40;;;1.25;;
16099;SDS011;8154;50.830;12.082;2022-07-06T04:41:31;1.20;;;1.10;;
16099;SDS011;8154;50.830;12.082;2022-07-06T04:44:15;1.88;;;1.30;;
16099;SDS011;8154;50.830;12.082;2022-07-06T04:47:00;1.50;;;1.30;;
16099;SDS011;8154;50.830;12.082;2022-07-06T04:49:44;1.30;;;1.20;;
16099;SDS011;8154;50.830;12.082;2022-07-06T04:52:29;1.50;;;1.40;;
16099;SDS011;8154;50.830;12.082;2022-07-06T04:55:13;3.00;;;1.58;;
16099;SDS011;8154;50.830;12.082;2022-07-06T04:57:58;1.58;;;1.27;;
16099;SDS011;8154;50.830;12.082;2022-07-06T05:00:42;1.90;;;1.30;;
16099;SDS011;8154;50.830;12.082;2022-07-06T05:03:26;1.42;;;1.33;;
16099;SDS011;8154;50.830;12.082;2022-07-06T05:06:10;2.42;;;1.35;;
16099;SDS011;8154;50.830;12.082;2022-07-06T05:08:54;2.53;;;1.40;;
16099;SDS011;8154;50.830;12.082;2022-07-06T05:11:39;2.53;;;1.50;;
16099;SDS011;8154;50.830;12.082;2022-07-06T05:14:24;3.38;;;1.55;;
16099;SDS011;8154;50.830;12.082;2022-07-06T05:17:09;1.73;;;1.40;;
16099;SDS011;8154;50.830;12.082;2022-07-06T05:19:54;1.48;;;1.30;;
16099;SDS011;8154;50.830;12.082;2022-07-06T05:22:38;1.75;;;1.30;;
16099;SDS011;8154;50.830;12.082;2022-07-06T05:25:22;1.52;;;1.30;;
16099;SDS011;8154;50.830;12.082;2022-07-06T05:28:06;2.10;;;1.40;;
16099;SDS011;8154;50.830;12.082;2022-07-06T05:30:51;1.73;;;1.30;;
16099;SDS011;8154;50.830;12.082;2022-07-06T05:33:35;1.40;;;1.20;;
16099;SDS011;8154;50.830;12.082;2022-07-06T05:36:20;1.95;;;1.30;;
16099;SDS011;8154;50.830;12.082;2022-07-06T05:39:04;1.40;;;1.30;;
16099;SDS011;8154;50.830;12.082;2022-07-06T05:41:48;1.40;;;1.20;;
16099;SDS011;8154;50.830;12.082;2022-07-06T05:44:32;1.70;;;1.20;;
16099;SDS011;8154;50.830;12.082;2022-07-06T05:47:17;3.10;;;1.40;;
16099;SDS011;8154;50.830;12.082;2022-07-06T05:50:20;2.67;;;1.20;;
16099;SDS011;8154;50.830;12.082;2022-07-06T05:53:04;2.22;;;1.30;;
16099;SDS011;8154;50.830;12.082;2022-07-06T05:55:49;1.35;;;1.23;;
16099;SDS011;8154;50.830;12.082;2022-07-06T05:58:34;1.58;;;1.20;;
16099;SDS011;8154;50.830;12.082;2022-07-06T06:01:18;1.35;;;1.10;;
16099;SDS011;8154;50.830;12.082;2022-07-06T06:04:03;1.65;;;1.20;;
16099;SDS011;8154;50.830;12.082;2022-07-06T06:06:47;1.75;;;1.20;;
16099;SDS011;8154;50.830;12.082;2022-07-06T06:09:32;1.25;;;1.08;;
16099;SDS011;8154;50.830;12.082;2022-07-06T06:12:16;1.77;;;1.27;;
16099;SDS011;8154;50.830;12.082;2022-07-06T06:15:00;2.50;;;1.13;;
16099;SDS011;8154;50.830;12.082;2022-07-06T06:17:45;1.65;;;1.20;;
16099;SDS011;8154;50.830;12.082;2022-07-06T06:20:29;1.45;;;1.30;;
16099;SDS011;8154;50.830;12.082;2022-07-06T06:23:14;2.28;;;1.30;;
16099;SDS011;8154;50.830;12.082;2022-07-06T06:25:58;2.45;;;1.20;;
16099;SDS011;8154;50.830;12.082;2022-07-06T06:28:42;1.40;;;1.30;;
16099;SDS011;8154;50.830;12.082;2022-07-06T06:31:26;1.27;;;1.10;;
16099;SDS011;8154;50.830;12.082;2022-07-06T06:34:11;2.20;;;1.23;;
16099;SDS011;8154;50.830;12.082;2022-07-06T06:36:55;1.58;;;1.00;;
16099;SDS011;8154;50.830;12.082;2022-07-06T06:39:39;1.50;;;1.10;;
16099;SDS011;8154;50.830;12.082;2022-07-06T06:42:23;1.60;;;1.20;;
16099;SDS011;8154;50.830;12.082;2022-07-06T06:45:07;1.67;;;0.93;;
16099;SDS011;8154;50.830;12.082;2022-07-06T06:47:52;1.80;;;1.30;;
16099;SDS011;8154;50.830;12.082;2022-07-06T06:50:36;1.83;;;1.25;;
16099;SDS011;8154;50.830;12.082;2022-07-06T06:53:21;1.27;;;1.10;;
16099;SDS011;8154;50.830;12.082;2022-07-06T06:56:05;1.17;;;1.08;;
16099;SDS011;8154;50.830;12.082;2022-07-06T06:58:49;2.08;;;1.38;;
16099;SDS011;8154;50.830;12.082;2022-07-06T07:01:33;2.53;;;1.15;;
16099;SDS011;8154;50.830;12.082;2022-07-06T07:04:18;1.48;;;1.10;;
16099;SDS011;8154;50.830;12.082;2022-07-06T07:07:02;1.70;;;1.15;;
16099;SDS011;8154;50.830;12.082;2022-07-06T07:09:46;1.48;;;1.20;;
16099;SDS011;8154;50.830;12.082;2022-07-06T07:12:30;1.25;;;1.10;;
16099;SDS011;8154;50.830;12.082;2022-07-06T07:15:14;2.85;;;1.23;;
16099;SDS011;8154;50.830;12.082;2022-07-06T07:18:00;1.55;;;1.20;;
16099;SDS011;8154;50.830;12.082;2022-07-06T07:20:44;1.63;;;1.20;;
16099;SDS011;8154;50.830;12.082;2022-07-06T07:23:29;1.83;;;1.20;;
16099;SDS011;8154;50.830;12.082;2022-07-06T07:26:13;2.03;;;1.40;;
16099;SDS011;8154;50.830;12.082;2022-07-06T07:28:58;2.47;;;1.27;;
16099;SDS011;8154;50.830;12.082;2022-07-06T07:31:42;2.00;;;1.15;;
16099;SDS011;8154;50.830;12.082;2022-07-06T07:34:26;2.05;;;1.30;;
16099;SDS011;8154;50.830;12.082;2022-07-06T07:37:11;2.38;;;1.20;;
16099;SDS011;8154;50.830;12.082;2022-07-06T07:39:55;1.92;;;1.30;;
16099;SDS011;8154;50.830;12.082;2022-07-06T07:42:39;2.50;;;1.30;;
16099;SDS011;8154;50.830;12.082;2022-07-06T07:45:24;1.98;;;1.20;;
16099;SDS011;8154;50.830;12.082;2022-07-06T07:48:08;1.10;;;1.00;;
16099;SDS011;8154;50.830;12.082;2022-07-06T07:50:53;1.70;;;1.20;;
16099;SDS011;8154;50.830;12.082;2022-07-06T07:53:37;1.60;;;1.20;;
16099;SDS011;8154;50.830;12.082;2022-07-06T07:56:21;1.27;;;1.17;;
16099;SDS011;8154;50.830;12.082;2022-07-06T07:59:06;2.33;;;1.20;;
16099;SDS011;8154;50.830;12.082;2022-07-06T08:01:51;2.00;;;1.17;;
16099;SDS011;8154;50.830;12.082;2022-07-06T08:04:35;1.85;;;1.00;;
16099;SDS011;8154;50.830;12.082;2022-07-06T08:07:19;1.40;;;1.10;;
16099;SDS011;8154;50.830;12.082;2022-07-06T08:10:03;2.25;;;1.15;;
16099;SDS011;8154;50.830;12.082;2022-07-06T08:12:48;1.60;;;1.10;;
16099;SDS011;8154;50.830;12.082;2022-07-06T08:15:33;1.67;;;1.20;;
16099;SDS011;8154;50.830;12.082;2022-07-06T08:18:18;2.95;;;1.20;;
16099;SDS011;8154;50.830;12.082;2022-07-06T08:21:03;1.10;;;1.00;;
16099;SDS011;8154;50.830;12.082;2022-07-06T08:23:47;2.25;;;1.08;;
16099;SDS011;8154;50.830;12.082;2022-07-06T08:26:31;1.50;;;1.00;;
16099;SDS011;8154;50.830;12.082;2022-07-06T08:29:16;1.40;;;1.10;;
16099;SDS011;8154;50.830;12.082;2022-07-06T08:32:00;0.93;;;0.80;;
16099;SDS011;8154;50.830;12.082;2022-07-06T08:34:45;1.45;;;1.00;;
16099;SDS011;8154;50.830;12.082;2022-07-06T08:37:30;1.48;;;0.93;;
16099;SDS011;8154;50.830;12.082;2022-07-06T08:40:14;1.10;;;1.00;;
16099;SDS011;8154;50.830;12.082;2022-07-06T08:42:59;0.93;;;0.90;;
16099;SDS011;8154;50.830;12.082;2022-07-06T08:45:43;1.50;;;1.10;;
16099;SDS011;8154;50.830;12.082;2022-07-06T08:48:28;2.00;;;1.17;;
16099;SDS011;8154;50.830;12.082;2022-07-06T08:51:19;1.48;;;1.00;;
16099;SDS011;8154;50.830;12.082;2022-07-06T08:54:04;1.60;;;1.00;;
16099;SDS011;8154;50.830;12.082;2022-07-06T08:56:49;1.75;;;1.00;;
16099;SDS011;8154;50.830;12.082;2022-07-06T08:59:34;1.30;;;1.00;;
16099;SDS011;8154;50.830;12.082;2022-07-06T09:02:18;1.25;;;1.10;;
16099;SDS011;8154;50.830;12.082;2022-07-06T09:05:07;2.13;;;1.05;;
16099;SDS011;8154;50.830;12.082;2022-07-06T09:07:52;1.33;;;1.00;;
16099;SDS011;8154;50.830;12.082;2022-07-06T09:10:37;0.98;;;0.90;;
16099;SDS011;8154;50.830;12.082;2022-07-06T09:13:21;1.00;;;0.90;;
16099;SDS011;8154;50.830;12.082;2022-07-06T09:16:12;1.33;;;1.00;;
16099;SDS011;8154;50.830;12.082;2022-07-06T09:18:58;1.50;;;1.00;;
16099;SDS011;8154;50.830;12.082;2022-07-06T09:21:42;1.50;;;1.00;;
16099;SDS011;8154;50.830;12.082;2022-07-06T09:24:27;2.15;;;1.17;;
16099;SDS011;8154;50.830;12.082;2022-07-06T09:27:15;0.95;;;0.90;;
16099;SDS011;8154;50.830;12.082;2022-07-06T09:30:03;1.40;;;1.00;;
16099;SDS011;8154;50.830;12.082;2022-07-06T09:32:49;1.23;;;1.00;;
16099;SDS011;8154;50.830;12.082;2022-07-06T09:35:38;1.70;;;1.00;;
16099;SDS011;8154;50.830;12.082;2022-07-06T09:38:23;1.35;;;1.02;;
16099;SDS011;8154;50.830;12.082;2022-07-06T09:41:10;1.10;;;1.00;;
16099;SDS011;8154;50.830;12.082;2022-07-06T09:43:55;1.10;;;1.00;;
16099;SDS011;8154;50.830;12.082;2022-07-06T09:46:41;2.03;;;1.10;;
16099;SDS011;8154;50.830;12.082;2022-07-06T09:49:27;1.35;;;1.10;;
16099;SDS011;8154;50.830;12.082;2022-07-06T09:52:12;1.15;;;1.00;;
16099;SDS011;8154;50.830;12.082;2022-07-06T09:54:57;1.80;;;1.00;;
16099;SDS011;8154;50.830;12.082;2022-07-06T09:57:51;2.20;;;1.00;;
16099;SDS011;8154;50.830;12.082;2022-07-06T10:00:37;1.90;;;1.10;;
16099;SDS011;8154;50.830;12.082;2022-07-06T10:03:21;1.17;;;0.95;;
16099;SDS011;8154;50.830;12.082;2022-07-06T10:06:06;2.80;;;1.30;;
16099;SDS011;8154;50.830;12.082;2022-07-06T10:08:53;1.23;;;1.05;;
16099;SDS011;8154;50.830;12.082;2022-07-06T10:11:50;1.48;;;1.10;;
16099;SDS011;8154;50.830;12.082;2022-07-06T10:14:36;1.45;;;1.00;;
16099;SDS011;8154;50.830;12.082;2022-07-06T10:17:21;1.77;;;1.10;;
16099;SDS011;8154;50.830;12.082;2022-07-06T10:20:07;1.80;;;1.10;;
16099;SDS011;8154;50.830;12.082;2022-07-06T10:22:52;1.73;;;1.10;;
16099;SDS011;8154;50.830;12.082;2022-07-06T10:25:38;1.35;;;1.02;;
16099;SDS011;8154;50.830;12.082;2022-07-06T10:28:23;2.13;;;1.10;;
16099;SDS011;8154;50.830;12.082;2022-07-06T10:31:08;1.70;;;1.20;;
16099;SDS011;8154;50.830;12.082;2022-07-06T10:33:54;2.50;;;1.20;;
16099;SDS011;8154;50.830;12.082;2022-07-06T10:36:44;1.70;;;1.10;;
16099;SDS011;8154;50.830;12.082;2022-07-06T10:39:32;2.10;;;1.23;;
16099;SDS011;8154;50.830;12.082;2022-07-06T10:42:44;1.65;;;1.10;;
16099;SDS011;8154;50.830;12.082;2022-07-06T10:48:20;1.30;;;1.20;;
16099;SDS011;8154;50.830;12.082;2022-07-06T10:51:05;1.00;;;0.93;;
16099;SDS011;8154;50.830;12.082;2022-07-06T10:53:56;1.30;;;1.20;;
16099;SDS011;8154;50.830;12.082;2022-07-06T10:56:44;1.88;;;1.15;;
16099;SDS011;8154;50.830;12.082;2022-07-06T10:59:30;2.08;;;1.10;;
16099;SDS011;8154;50.830;12.082;2022-07-06T11:02:15;1.30;;;1.20;;
16099;SDS011;8154;50.830;12.082;2022-07-06T11:05:00;1.20;;;1.10;;
16099;SDS011;8154;50.830;12.082;2022-07-06T11:07:50;1.75;;;1.20;;
16099;SDS011;8154;50.830;12.082;2022-07-06T11:10:47;1.83;;;1.20;;
16099;SDS011;8154;50.830;12.082;2022-07-06T11:13:32;1.75;;;1.20;;
16099;SDS011;8154;50.830;12.082;2022-07-06T11:16:16;1.40;;;1.10;;
16099;SDS011;8154;50.830;12.082;2022-07-06T11:19:06;1.83;;;1.40;;
16099;SDS011;8154;50.830;12.082;2022-07-06T11:21:54;2.10;;;1.40;;
16099;SDS011;8154;50.830;12.082;2022-07-06T11:24:41;1.52;;;1.30;;
16099;SDS011;8154;50.830;12.082;2022-07-06T11:27:26;2.22;;;1.60;;
16099;SDS011;8154;50.830;12.082;2022-07-06T11:30:11;1.60;;;1.50;;
16099;SDS011;8154;50.830;12.082;2022-07-06T11:32:56;1.30;;;1.20;;
16099;SDS011;8154;50.830;12.082;2022-07-06T11:35:40;1.60;;;1.48;;
16099;SDS011;8154;50.830;12.082;2022-07-06T11:38:25;1.30;;;1.20;;
16099;SDS011;8154;50.830;12.082;2022-07-06T11:41:10;1.50;;;1.30;;
16099;SDS011;8154;50.830;12.082;2022-07-06T11:43:56;2.03;;;1.42;;
16099;SDS011;8154;50.830;12.082;2022-07-06T11:46:41;2.35;;;1.25;;
16099;SDS011;8154;50.830;12.082;2022-07-06T11:49:25;1.50;;;1.40;;
16099;SDS011;8154;50.830;12.082;2022-07-06T11:52:11;2.03;;;1.35;;
16099;SDS011;8154;50.830;12.082;2022-07-06T11:54:59;1.88;;;1.40;;
16099;SDS011;8154;50.830;12.082;2022-07-06T11:57:44;1.40;;;1.30;;
16099;SDS011;8154;50.830;12.082;2022-07-06T12:00:29;2.60;;;1.48;;
16099;SDS011;8154;50.830;12.082;2022-07-06T12:03:15;1.45;;;1.35;;
16099;SDS011;8154;50.830;12.082;2022-07-06T12:06:06;1.95;;;1.30;;
16099;SDS011;8154;50.830;12.082;2022-07-06T12:08:57;1.50;;;1.30;;
16099;SDS011;8154;50.830;12.082;2022-07-06T12:11:44;1.83;;;1.40;;
16099;SDS011;8154;50.830;12.082;2022-07-06T12:14:33;1.50;;;1.40;;
16099;SDS011;8154;50.830;12.082;2022-07-06T12:17:19;1.50;;;1.40;;
16099;SDS011;8154;50.830;12.082;2022-07-06T12:20:04;1.55;;;1.45;;
16099;SDS011;8154;50.830;12.082;2022-07-06T12:22:48;2.10;;;1.50;;
16099;SDS011;8154;50.830;12.082;2022-07-06T12:25:33;1.40;;;1.30;;
16099;SDS011;8154;50.830;12.082;2022-07-06T12:28:22;1.90;;;1.50;;
16099;SDS011;8154;50.830;12.082;2022-07-06T12:31:07;1.95;;;1.40;;
16099;SDS011;8154;50.830;12.082;2022-07-06T12:33:58;1.55;;;1.30;;
16099;SDS011;8154;50.830;12.082;2022-07-06T12:36:47;1.50;;;1.40;;
16099;SDS011;8154;50.830;12.082;2022-07-06T12:39:46;1.83;;;1.50;;
16099;SDS011;8154;50.830;12.082;2022-07-06T12:42:31;1.65;;;1.40;;
16099;SDS011;8154;50.830;12.082;2022-07-06T12:45:15;1.50;;;1.40;;
16099;SDS011;8154;50.830;12.082;2022-07-06T12:48:01;1.75;;;1.40;;
16099;SDS011;8154;50.830;12.082;2022-07-06T12:50:48;2.42;;;1.35;;
16099;SDS011;8154;50.830;12.082;2022-07-06T12:53:33;1.33;;;1.10;;
16099;SDS011;8154;50.830;12.082;2022-07-06T12:56:17;1.67;;;1.33;;
16099;SDS011;8154;50.830;12.082;2022-07-06T12:59:01;2.30;;;1.40;;
16099;SDS011;8154;50.830;12.082;2022-07-06T13:01:47;1.33;;;1.20;;
16099;SDS011;8154;50.830;12.082;2022-07-06T13:04:31;1.30;;;1.20;;
16099;SDS011;8154;50.830;12.082;2022-07-06T13:07:19;1.40;;;1.20;;
16099;SDS011;8154;50.830;12.082;2022-07-06T13:10:04;1.58;;;1.27;;
16099;SDS011;8154;50.830;12.082;2022-07-06T13:12:52;1.75;;;1.20;;
16099;SDS011;8154;50.830;12.082;2022-07-06T13:15:36;1.88;;;1.30;;
16099;SDS011;8154;50.830;12.082;2022-07-06T13:18:20;1.10;;;1.00;;
16099;SDS011;8154;50.830;12.082;2022-07-06T13:21:05;2.28;;;1.20;;
16099;SDS011;8154;50.830;12.082;2022-07-06T13:23:49;3.75;;;1.08;;
16099;SDS011;8154;50.830;12.082;2022-07-06T13:26:33;1.20;;;1.10;;
16099;SDS011;8154;50.830;12.082;2022-07-06T13:29:17;1.38;;;1.10;;
16099;SDS011;8154;50.830;12.082;2022-07-06T13:32:02;2.03;;;1.20;;
16099;SDS011;8154;50.830;12.082;2022-07-06T13:34:50;1.20;;;1.00;;
16099;SDS011;8154;50.830;12.082;2022-07-06T13:37:34;1.45;;;1.17;;
16099;SDS011;8154;50.830;12.082;2022-07-06T13:40:19;1.20;;;1.10;;
16099;SDS011;8154;50.830;12.082;2022-07-06T13:43:03;1.60;;;1.30;;
16099;SDS011;8154;50.830;12.082;2022-07-06T13:45:47;2.28;;;1.05;;
16099;SDS011;8154;50.830;12.082;2022-07-06T13:48:32;1.38;;;1.00;;
16099;SDS011;8154;50.830;12.082;2022-07-06T13:51:17;1.20;;;1.10;;
16099;SDS011;8154;50.830;12.082;2022-07-06T13:54:01;1.63;;;1.30;;
16099;SDS011;8154;50.830;12.082;2022-07-06T13:56:46;1.92;;;1.30;;
16099;SDS011;8154;50.830;12.082;2022-07-06T13:59:30;1.80;;;1.70;;
16099;SDS011;8154;50.830;12.082;2022-07-06T14:02:15;1.88;;;1.77;;
16099;SDS011;8154;50.830;12.082;2022-07-06T14:04:59;1.55;;;1.45;;
16099;SDS011;8154;50.830;12.082;2022-07-06T14:07:43;2.08;;;1.63;;
16099;SDS011;8154;50.830;12.082;2022-07-06T14:10:28;1.50;;;1.40;;
16099;SDS011;8154;50.830;12.082;2022-07-06T14:13:12;2.65;;;1.40;;
16099;SDS011;8154;50.830;12.082;2022-07-06T14:15:56;1.80;;;1.70;;
16099;SDS011;8154;50.830;12.082;2022-07-06T14:18:41;2.80;;;1.50;;
16099;SDS011;8154;50.830;12.082;2022-07-06T14:21:27;1.40;;;1.30;;
16099;SDS011;8154;50.830;12.082;2022-07-06T14:24:11;2.03;;;1.40;;
16099;SDS011;8154;50.830;12.082;2022-07-06T14:26:55;1.52;;;1.42;;
16099;SDS011;8154;50.830;12.082;2022-07-06T14:29:39;1.30;;;1.20;;
16099;SDS011;8154;50.830;12.082;2022-07-06T14:32:24;1.58;;;1.30;;
16099;SDS011;8154;50.830;12.082;2022-07-06T14:35:08;1.58;;;1.02;;
16099;SDS011;8154;50.830;12.082;2022-07-06T14:37:53;1.65;;;1.20;;
16099;SDS011;8154;50.830;12.082;2022-07-06T14:40:37;2.33;;;1.10;;
16099;SDS011;8154;50.830;12.082;2022-07-06T14:43:21;2.58;;;1.30;;
16099;SDS011;8154;50.830;12.082;2022-07-06T14:46:06;1.23;;;1.10;;
16099;SDS011;8154;50.830;12.082;2022-07-06T14:48:50;1.60;;;1.20;;
16099;SDS011;8154;50.830;12.082;2022-07-06T14:51:35;2.53;;;1.25;;
16099;SDS011;8154;50.830;12.082;2022-07-06T14:54:19;1.00;;;1.00;;
16099;SDS011;8154;50.830;12.082;2022-07-06T14:57:03;1.70;;;1.13;;
16099;SDS011;8154;50.830;12.082;2022-07-06T14:59:47;1.48;;;1.17;;
16099;SDS011;8154;50.830;12.082;2022-07-06T15:02:32;2.22;;;1.13;;
16099;SDS011;8154;50.830;12.082;2022-07-06T15:05:16;1.67;;;1.10;;
16099;SDS011;8154;50.830;12.082;2022-07-06T15:08:00;2.00;;;1.00;;
16099;SDS011;8154;50.830;12.082;2022-07-06T15:10:44;1.23;;;1.10;;
16099;SDS011;8154;50.830;12.082;2022-07-06T15:13:29;1.40;;;1.20;;
16099;SDS011;8154;50.830;12.082;2022-07-06T15:16:13;1.33;;;1.10;;
16099;SDS011;8154;50.830;12.082;2022-07-06T15:18:57;1.42;;;1.00;;
16099;SDS011;8154;50.830;12.082;2022-07-06T15:21:41;1.98;;;1.10;;
16099;SDS011;8154;50.830;12.082;2022-07-06T15:24:27;1.73;;;1.00;;
16099;SDS011;8154;50.830;12.082;2022-07-06T15:27:11;1.38;;;1.00;;
16099;SDS011;8154;50.830;12.082;2022-07-06T15:29:56;1.20;;;1.10;;
16099;SDS011;8154;50.830;12.082;2022-07-06T15:32:40;0.90;;;0.90;;
16099;SDS011;8154;50.830;12.082;2022-07-06T15:35:24;1.30;;;1.10;;
16099;SDS011;8154;50.830;12.082;2022-07-06T15:38:09;2.90;;;1.20;;
16099;SDS011;8154;50.830;12.082;2022-07-06T15:40:54;1.23;;;0.98;;
16099;SDS011;8154;50.830;12.082;2022-07-06T15:43:45;2.50;;;1.30;;
16099;SDS011;8154;50.830;12.082;2022-07-06T15:46:30;0.93;;;0.90;;
16099;SDS011;8154;50.830;12.082;2022-07-06T15:49:14;1.55;;;1.00;;
16099;SDS011;8154;50.830;12.082;2022-07-06T15:52:01;2.55;;;1.00;;
16099;SDS011;8154;50.830;12.082;2022-07-06T15:54:46;2.03;;;1.10;;
16099;SDS011;8154;50.830;12.082;2022-07-06T15:57:30;0.82;;;0.82;;
16099;SDS011;8154;50.830;12.082;2022-07-06T16:00:14;1.58;;;1.08;;
16099;SDS011;8154;50.830;12.082;2022-07-06T16:02:59;2.00;;;1.13;;
16099;SDS011;8154;50.830;12.082;2022-07-06T16:05:43;0.80;;;0.80;;
16099;SDS011;8154;50.830;12.082;2022-07-06T16:08:27;1.25;;;1.00;;
16099;SDS011;8154;50.830;12.082;2022-07-06T16:11:14;1.70;;;1.20;;
16099;SDS011;8154;50.830;12.082;2022-07-06T16:13:59;2.10;;;1.10;;
16099;SDS011;8154;50.830;12.082;2022-07-06T16:16:43;1.63;;;0.90;;
16099;SDS011;8154;50.830;12.082;2022-07-06T16:19:28;1.20;;;1.10;;
16099;SDS011;8154;50.830;12.082;2022-07-06T16:22:12;1.50;;;1.00;;
16099;SDS011;8154;50.830;12.082;2022-07-06T16:24:57;1.30;;;0.98;;
16099;SDS011;8154;50.830;12.082;2022-07-06T16:27:41;3.08;;;1.20;;
16099;SDS011;8154;50.830;12.082;2022-07-06T16:30:25;6.90;;;1.70;;
16099;SDS011;8154;50.830;12.082;2022-07-06T16:33:10;3.38;;;1.30;;
16099;SDS011;8154;50.830;12.082;2022-07-06T16:35:54;6.32;;;1.25;;
16099;SDS011;8154;50.830;12.082;2022-07-06T16:38:38;2.35;;;1.27;;